Time;durP1;ratioP1;P1;durP2;ratioP2;P2;SDS_P1;SDS_P2;PMS_P1;PMS_P2;Temp;Humidity;BMP_temperature;BMP_pressure;BME280_temperature;BME280_humidity;BME280_pressure;Samples;Min_cycle;Max_cycle;Signal;HPM_P1;HPM_P2
2022/02/01 00:02:36;;;;;;;48.50;17.10;;;;;;;21.61;16.79;97138.50;5060558;28;20028;-79
2022/02/01 00:05:26;;;;;;;44.30;17.38;;;;;;;21.90;16.50;97135.75;5082089;28;20045;-79
2022/02/01 00:08:35;;;;;;;46.38;16.35;;;;;;;22.45;15.89;97132.53;5063676;28;20025;-79
2022/02/01 00:11:02;;;;;;;51.17;17.13;;;;;;;22.87;15.76;97135.28;5069863;28;20128;-78
2022/02/01 00:13:44;;;;;;;47.08;16.17;;;;;;;23.23;15.41;97132.88;5061163;28;20480;-79
2022/02/01 00:37:33;;;;;;;52.60;19.40;;;;;;;24.32;14.75;97151.44;5062158;28;20098;-79
2022/02/01 00:40:00;;;;;;;48.17;15.98;;;;;;;24.30;14.93;97147.53;5060787;28;20040;-79
2022/02/01 00:42:26;;;;;;;43.50;17.83;;;;;;;24.18;14.82;97154.00;5069660;28;20064;-79
2022/02/01 00:44:52;;;;;;;52.20;18.98;;;;;;;24.04;15.09;97153.25;5062979;28;20063;-79
2022/02/01 00:47:18;;;;;;;43.10;15.82;;;;;;;24.11;15.11;97155.03;5069502;28;20397;-79
2022/02/01 00:49:44;;;;;;;52.20;18.30;;;;;;;24.24;15.10;97164.19;5064758;28;20128;-79
2022/02/01 00:52:10;;;;;;;47.10;17.17;;;;;;;23.85;15.68;97159.94;5061956;28;20030;-79
2022/02/01 00:54:41;;;;;;;49.92;17.60;;;;;;;23.53;16.07;97157.47;5064107;28;20416;-79
2022/02/01 00:57:11;;;;;;;53.35;18.73;;;;;;;23.68;15.84;97161.38;5059206;28;20078;-78
2022/02/01 00:59:37;;;;;;;50.70;17.55;;;;;;;23.19;16.30;97152.59;5063332;28;20036;-79
2022/02/01 01:02:04;;;;;;;42.13;16.80;;;;;;;23.43;15.94;97155.84;5064888;28;20504;-78
2022/02/01 01:04:30;;;;;;;49.47;18.85;;;;;;;23.37;16.21;97157.63;5071129;28;20035;-78
2022/02/01 01:06:56;;;;;;;44.65;16.77;;;;;;;23.53;15.92;97153.88;5061358;28;20043;-79
2022/02/01 01:09:22;;;;;;;57.65;19.38;;;;;;;23.71;16.03;97154.06;5062103;28;20055;-78
2022/02/01 01:11:53;;;;;;;46.17;16.52;;;;;;;23.45;16.09;97150.56;5058654;28;20029;-78
2022/02/01 01:44:39;;;;;;;43.22;16.50;;;;;;;23.32;16.65;97188.97;5066879;28;20083;-79
2022/02/01 01:53:09;;;;;;;46.17;17.98;;;;;;;23.28;16.94;97196.72;5067537;28;20048;-79
2022/02/01 01:55:34;;;;;;;50.63;16.70;;;;;;;23.46;16.69;97182.94;5066866;28;20129;-79
2022/02/01 01:58:00;;;;;;;35.08;15.45;;;;;;;23.75;16.26;97180.75;5062510;28;20035;-79
2022/02/01 02:01:00;;;;;;;36.83;15.23;;;;;;;23.51;16.53;97187.19;5067840;28;20028;-79
2022/02/01 02:03:26;;;;;;;41.80;16.52;;;;;;;23.70;16.42;97191.72;5066253;28;20039;-79
2022/02/01 02:05:53;;;;;;;49.72;17.42;;;;;;;23.61;16.35;97195.25;5058508;28;20497;-79
2022/02/01 02:08:20;;;;;;;45.15;16.50;;;;;;;23.66;16.40;97202.28;5059971;28;20063;-79
2022/02/01 02:11:00;;;;;;;34.55;14.27;;;;;;;23.26;16.79;97205.56;5060838;28;20106;-79
2022/02/01 02:15:59;;;;;;;33.00;12.30;;;;;;;22.07;18.15;97207.16;5065194;28;20476;-79
2022/02/01 02:18:30;;;;;;;37.95;15.60;;;;;;;21.30;18.89;97216.31;5061109;28;20488;-79
2022/02/01 02:20:57;;;;;;;;;;;;;;;21.11;19.45;97221.97;5064039;28;20032;-79
2022/02/01 02:23:23;;;;;;;47.25;17.15;;;;;;;21.19;19.36;97220.59;5065514;28;19943;-79
2022/02/01 02:25:51;;;;;;;42.97;18.48;;;;;;;21.31;19.21;97223.47;5063570;28;20034;-79
2022/02/01 02:28:18;;;;;;;46.95;18.30;;;;;;;21.13;19.33;97220.31;5068865;28;20063;-79
2022/02/01 02:30:46;;;;;;;44.03;15.88;;;;;;;20.59;19.76;97225.50;5060955;28;20035;-79
2022/02/01 02:33:15;;;;;;;54.08;21.23;;;;;;;20.78;19.71;97225.91;5067987;28;20476;-79
2022/02/01 02:35:53;;;;;;;66.88;24.70;;;;;;;20.65;19.84;97220.97;5065432;28;20527;-79
2022/02/01 02:38:29;;;;;;;43.05;17.95;;;;;;;20.93;19.59;97227.94;5061068;28;20075;-79
2022/02/01 02:46:25;;;;;;;55.97;21.92;;;;;;;20.90;19.65;97236.38;5059912;28;20125;-79
2022/02/01 02:48:52;;;;;;;52.97;21.92;;;;;;;21.05;19.46;97243.25;5062607;28;20040;-79
2022/02/01 02:51:19;;;;;;;59.08;20.88;;;;;;;21.17;19.44;97246.13;5058701;28;20443;-79
2022/02/01 02:53:46;;;;;;;57.50;23.15;;;;;;;21.00;19.54;97255.69;5066710;28;20044;-79
2022/02/01 02:56:12;;;;;;;59.13;21.48;;;;;;;20.75;19.89;97263.81;5064610;28;20389;-79
2022/02/01 02:58:38;;;;;;;60.85;23.08;;;;;;;20.34;20.19;97272.63;5063125;28;20036;-79
2022/02/01 03:01:05;;;;;;;52.50;19.88;;;;;;;19.98;20.90;97275.28;5065375;28;20500;-79
2022/02/01 03:03:31;;;;;;;53.60;22.08;;;;;;;20.72;19.93;97273.06;5061408;28;20037;-79
2022/02/01 03:05:57;;;;;;;73.90;24.42;;;;;;;20.70;19.82;97274.69;5062957;28;20024;-79
2022/02/01 03:08:24;;;;;;;58.38;22.08;;;;;;;20.88;19.82;97278.69;5067137;28;20055;-79
2022/02/01 03:10:50;;;;;;;55.33;23.30;;;;;;;20.48;20.21;97285.50;5064028;28;20477;-79
2022/02/01 03:13:27;;;;;;;47.45;20.48;;;;;;;20.95;19.79;97284.09;5059011;28;20071;-79
2022/02/01 03:16:01;;;;;;;54.50;20.08;;;;;;;20.83;19.57;97287.56;5055752;28;20488;-79
2022/02/01 03:21:12;;;;;;;72.20;25.48;;;;;;;20.53;20.16;97296.16;5060041;28;20056;-79
2022/02/01 03:23:38;;;;;;;65.50;22.90;;;;;;;20.31;20.29;97297.78;5062259;28;20032;-79
2022/02/01 03:26:04;;;;;;;60.67;24.48;;;;;;;19.98;20.76;97305.91;5062443;28;20399;-79
2022/02/01 03:28:30;;;;;;;67.13;24.73;;;;;;;20.61;20.11;97314.31;5064140;28;20520;-79
2022/02/01 03:30:57;;;;;;;55.97;22.48;;;;;;;21.00;19.46;97328.25;5058695;28;20052;-79
2022/02/01 03:33:23;;;;;;;66.88;25.92;;;;;;;21.03;19.51;97313.41;5060732;28;20033;-79
2022/02/01 03:35:49;;;;;;;73.53;26.25;;;;;;;20.95;19.69;97309.22;5059944;28;20086;-79
2022/02/01 03:38:15;;;;;;;58.90;22.05;;;;;;;20.58;19.83;97317.97;5063435;28;20029;-79
2022/02/01 03:40:41;;;;;;;56.08;21.45;;;;;;;20.26;20.34;97317.78;5058669;28;20454;-79
2022/02/01 03:43:07;;;;;;;65.05;23.73;;;;;;;20.45;20.05;97323.38;5055335;28;20378;-79
2022/02/01 03:45:33;;;;;;;68.45;24.02;;;;;;;20.75;19.88;97322.38;5060508;28;20037;-79
2022/02/01 03:47:59;;;;;;;63.35;24.50;;;;;;;20.97;19.48;97325.53;5065145;28;20062;-79
2022/02/01 03:50:25;;;;;;;62.35;24.20;;;;;;;21.42;19.11;97322.97;5059348;28;20043;-79
2022/02/01 03:52:52;;;;;;;48.00;18.23;;;;;;;21.54;18.86;97320.25;5058665;28;20033;-79
2022/02/01 03:55:19;;;;;;;60.20;23.02;;;;;;;21.23;19.02;97310.63;5065690;28;20032;-79
2022/02/01 03:57:45;;;;;;;58.42;21.48;;;;;;;21.53;19.00;97306.72;5051966;28;20051;-79
2022/02/01 04:00:12;;;;;;;58.50;20.58;;;;;;;21.73;18.65;97313.81;5060166;28;20032;-79
2022/02/01 04:02:39;;;;;;;63.67;22.48;;;;;;;21.68;18.61;97307.97;5059376;28;20032;-79
2022/02/01 04:05:05;;;;;;;56.65;21.23;;;;;;;21.49;18.78;97312.41;5062014;28;20512;-79
2022/02/01 04:07:31;;;;;;;60.40;22.95;;;;;;;21.28;19.05;97329.66;5054030;28;20369;-79
2022/02/01 04:09:57;;;;;;;58.38;21.88;;;;;;;21.51;18.88;97321.13;5055536;28;20032;-79
2022/02/01 04:12:24;;;;;;;59.38;21.80;;;;;;;21.33;18.93;97323.56;5059363;28;20036;-79
2022/02/01 04:14:53;;;;;;;64.03;23.38;;;;;;;21.05;19.29;97327.75;5058586;28;20033;-79
2022/02/01 04:17:20;;;;;;;52.00;20.88;;;;;;;20.98;19.39;97321.53;5061312;28;20051;-79
2022/02/01 04:19:47;;;;;;;62.95;22.70;;;;;;;20.69;19.74;97321.31;5063544;28;20037;-79
2022/02/01 04:22:15;;;;;;;56.65;19.98;;;;;;;21.19;19.09;97326.69;5065593;28;20044;-79
2022/02/01 04:24:46;;;;;;;56.08;22.10;;;;;;;21.34;19.12;97317.53;5063415;28;20040;-79
2022/02/01 04:27:46;;;;;;;53.78;21.13;;;;;;;21.92;18.46;97312.97;5053466;28;20060;-79
2022/02/01 04:30:10;;;;;;;57.03;22.10;;;;;;;22.42;17.76;97306.84;5055004;28;20040;-79
2022/02/01 04:32:42;;;;;;;52.75;20.25;;;;;;;22.61;17.55;97317.09;5060276;28;20064;-79
2022/02/01 04:35:11;;;;;;;75.43;26.02;;;;;;;21.78;18.54;97315.28;5065544;28;20033;-79
2022/02/01 04:37:38;;;;;;;52.53;20.38;;;;;;;21.74;18.62;97317.38;5061296;28;20025;-79
2022/02/01 04:40:06;;;;;;;57.83;21.15;;;;;;;21.93;18.26;97320.13;5057926;28;20032;-79
2022/02/01 04:42:35;;;;;;;51.13;20.38;;;;;;;22.08;18.14;97323.34;5063598;28;20375;-79
2022/02/01 04:45:03;;;;;;;59.60;22.95;;;;;;;21.90;18.25;97323.00;5056960;28;20035;-79
2022/02/01 04:47:32;;;;;;;40.22;17.05;;;;;;;20.83;19.16;97325.81;5056866;28;20485;-79
2022/02/01 04:49:59;;;;;;;58.55;19.98;;;;;;;20.45;19.93;97331.75;5064358;28;20452;-79
2022/02/01 04:52:26;;;;;;;49.75;18.42;;;;;;;20.29;19.90;97334.44;5065356;28;20500;-79
2022/02/01 04:54:53;;;;;;;59.42;20.55;;;;;;;19.93;20.40;97348.19;5059732;28;20055;-79
2022/02/01 04:57:19;;;;;;;44.67;17.45;;;;;;;19.84;20.49;97350.72;5070827;28;20021;-79
2022/02/01 04:59:45;;;;;;;42.75;16.52;;;;;;;19.87;20.58;97351.88;5064498;28;20484;-79
2022/02/01 05:02:11;;;;;;;52.75;19.83;;;;;;;20.57;19.71;97355.44;5063463;28;20087;-79
2022/02/01 05:04:37;;;;;;;55.05;18.80;;;;;;;20.79;19.47;97359.38;5062379;28;20037;-79
2022/02/01 05:07:03;;;;;;;55.83;21.50;;;;;;;20.30;19.98;97365.91;5068109;28;20545;-79
2022/02/01 05:09:29;;;;;;;46.72;17.05;;;;;;;20.04;20.39;97370.31;5065827;28;20086;-79
2022/02/01 05:11:57;;;;;;;53.67;19.90;;;;;;;20.41;19.95;97372.88;5062081;28;20032;-79
2022/02/01 05:14:25;;;;;;;47.10;19.00;;;;;;;19.63;20.80;97364.19;5065691;28;20059;-79
2022/02/01 05:22:02;;;;;;;42.63;16.98;;;;;;;19.62;20.84;97382.13;5061520;28;20040;-79
2022/02/01 05:24:28;;;;;;;45.75;17.67;;;;;;;19.71;20.75;97377.63;5064499;28;20025;-79
2022/02/01 05:26:55;;;;;;;59.83;22.20;;;;;;;19.19;21.48;97388.28;5064530;28;20082;-79
2022/02/01 05:29:23;;;;;;;51.15;18.95;;;;;;;19.30;21.06;97382.56;5066155;28;20039;-79
2022/02/01 05:31:51;;;;;;;69.38;23.65;;;;;;;19.56;21.10;97394.94;5064404;28;20025;-79
2022/02/01 05:34:20;;;;;;;55.08;18.00;;;;;;;20.17;20.31;97398.34;5064232;28;20029;-79
2022/02/01 05:36:47;;;;;;;48.00;18.17;;;;;;;19.41;21.30;97401.94;5066942;28;20480;-79
2022/02/01 05:39:19;;;;;;;48.53;20.00;;;;;;;19.57;20.97;97408.47;5064287;28;20075;-79
2022/02/01 05:41:45;;;;;;;47.85;16.52;;;;;;;19.48;21.05;97413.75;5067143;28;20037;-79
2022/02/01 05:44:12;;;;;;;43.13;16.15;;;;;;;18.94;21.70;97426.75;5062841;28;20025;-79
2022/02/01 05:46:39;;;;;;;54.88;19.40;;;;;;;19.39;21.35;97421.84;5060913;28;20388;-79
2022/02/01 05:49:06;;;;;;;49.05;17.42;;;;;;;19.80;20.85;97419.66;5058496;28;20025;-79
2022/02/01 05:51:33;;;;;;;50.30;18.90;;;;;;;20.31;20.21;97417.66;5065913;28;20123;-79
2022/02/01 05:54:00;;;;;;;47.20;17.20;;;;;;;20.16;20.30;97421.88;5065844;28;20365;-79
2022/02/01 05:56:26;;;;;;;41.40;17.30;;;;;;;20.41;19.89;97419.47;5063577;28;20040;-79
2022/02/01 05:58:53;;;;;;;36.15;14.07;;;;;;;20.30;19.95;97421.66;5071135;28;20036;-79
2022/02/01 06:01:19;;;;;;;41.22;16.20;;;;;;;20.59;19.70;97431.88;5061284;28;20021;-79
2022/02/01 06:03:45;;;;;;;34.35;13.50;;;;;;;20.21;20.06;97433.31;5061934;28;20163;-79
2022/02/01 06:06:11;;;;;;;33.30;12.82;;;;;;;19.85;20.40;97441.47;5066092;28;20099;-79
2022/02/01 06:08:37;;;;;;;51.20;18.65;;;;;;;20.12;20.14;97435.09;5059913;28;20502;-79
2022/02/01 06:11:03;;;;;;;39.10;15.82;;;;;;;20.75;19.50;97431.19;5064367;28;20106;-79
2022/02/01 06:13:30;;;;;;;39.90;16.15;;;;;;;21.62;18.75;97433.41;5080541;28;20045;-79
2022/02/01 06:15:56;;;;;;;45.47;13.90;;;;;;;22.35;17.76;97415.31;5064454;28;20029;-79
2022/02/01 06:18:22;;;;;;;37.33;14.63;;;;;;;22.34;17.82;97419.34;5065243;28;20470;-79
2022/02/01 06:20:48;;;;;;;35.30;13.13;;;;;;;22.66;17.48;97428.50;5060395;28;20478;-80
2022/02/01 06:23:17;;;;;;;34.28;11.90;;;;;;;22.56;17.26;97456.75;5064321;28;20538;-79
2022/02/01 06:25:51;;;;;;;28.70;12.57;;;;;;;21.94;17.97;97460.66;5064850;28;20618;-79
2022/02/01 06:28:28;;;;;;;32.95;11.75;;;;;;;21.19;18.69;97457.88;5066060;28;20033;-79
2022/02/01 06:30:57;;;;;;;38.92;13.02;;;;;;;21.30;18.79;97464.81;5067230;28;20476;-79
2022/02/01 06:33:25;;;;;;;34.42;13.38;;;;;;;21.55;18.65;97467.09;5065629;28;20177;-78
2022/02/01 06:35:51;;;;;;;37.20;15.70;;;;;;;21.54;18.55;97482.25;5065592;28;20056;-79
2022/02/01 06:38:18;;;;;;;51.47;17.85;;;;;;;21.73;18.54;97483.44;5060303;28;20039;-80
2022/02/01 06:40:46;;;;;;;43.85;15.88;;;;;;;21.43;18.76;97489.28;5056791;28;20131;-81
2022/02/01 06:43:13;;;;;;;39.70;13.60;;;;;;;21.43;18.73;97486.50;5059016;28;21099;-80
2022/02/01 06:45:40;;;;;;;36.55;14.70;;;;;;;21.31;18.86;97493.50;5064152;28;20031;-81
2022/02/01 06:48:06;;;;;;;38.92;13.32;;;;;;;21.14;18.99;97491.88;5067017;28;20032;-82
2022/02/01 06:50:34;;;;;;;38.83;13.32;;;;;;;20.96;19.16;97489.38;5074284;28;20059;-82
2022/02/01 06:53:02;;;;;;;43.45;15.50;;;;;;;19.16;21.13;97494.84;5070137;28;20067;-81
2022/02/01 06:55:43;;;;;;;36.88;14.70;;;;;;;18.86;21.84;97500.34;5061735;28;20396;-82
2022/02/01 06:58:11;;;;;;;47.05;16.90;;;;;;;19.70;20.74;97501.34;5054377;28;20021;-81
2022/02/01 07:00:39;;;;;;;43.47;16.73;;;;;;;19.99;20.42;97502.53;5071914;28;20530;-81
2022/02/01 07:03:05;;;;;;;39.58;15.15;;;;;;;19.24;20.99;97510.25;5059987;28;20051;-81
2022/02/01 07:05:31;;;;;;;43.90;17.30;;;;;;;19.11;21.57;97509.19;5064571;28;20047;-81
2022/02/01 07:07:58;;;;;;;42.00;14.35;;;;;;;19.81;20.80;97507.56;5066346;28;20058;-81
2022/02/01 07:10:24;;;;;;;52.90;16.60;;;;;;;20.20;20.32;97500.63;5067586;28;20057;-81
2022/02/01 07:12:51;;;;;;;44.70;15.80;;;;;;;19.86;20.50;97511.91;5062633;28;20024;-81
2022/02/01 07:15:17;;;;;;;42.65;14.98;;;;;;;20.36;20.21;97517.53;5055458;28;20028;-82
2022/02/01 07:17:45;;;;;;;36.55;13.38;;;;;;;20.25;20.02;97514.13;5063919;28;20391;-82
2022/02/01 07:20:11;;;;;;;31.45;12.75;;;;;;;20.69;19.55;97516.59;5066000;28;20514;-81
2022/02/01 07:22:37;;;;;;;29.25;12.68;;;;;;;20.51;19.65;97510.53;5060784;28;20057;-82
2022/02/01 07:25:14;;;;;;;29.95;12.07;;;;;;;20.56;19.56;97515.63;5062647;28;20025;-82
2022/02/01 07:27:42;;;;;;;42.75;14.32;;;;;;;21.08;19.08;97513.91;5060651;28;20036;-82
2022/02/01 07:30:11;;;;;;;32.78;12.90;;;;;;;20.68;19.57;97510.22;5061644;28;20032;-82
2022/02/01 07:32:38;;;;;;;41.92;13.43;;;;;;;20.90;19.50;97510.63;5057311;28;20033;-82
2022/02/01 07:35:06;;;;;;;34.97;13.55;;;;;;;20.43;19.82;97514.63;5061855;28;20029;-82
2022/02/01 07:37:33;;;;;;;36.42;13.60;;;;;;;20.49;19.64;97519.31;5058482;28;20044;-82
2022/02/01 07:40:01;;;;;;;37.40;14.40;;;;;;;20.94;19.31;97522.50;5064872;28;20035;-82
2022/02/01 07:42:28;;;;;;;31.95;11.57;;;;;;;19.50;20.56;97530.28;5071943;28;20038;-82
2022/02/01 07:44:58;;;;;;;32.47;12.95;;;;;;;19.71;20.82;97536.38;5060582;28;20103;-82
2022/02/01 07:47:25;;;;;;;29.92;12.20;;;;;;;19.08;21.22;97535.09;5062281;28;20035;-82
2022/02/01 07:49:51;;;;;;;39.90;15.50;;;;;;;19.03;21.28;97531.97;5058441;28;20119;-82
2022/02/01 07:52:18;;;;;;;33.97;14.63;;;;;;;18.85;21.36;97534.94;5065934;28;20574;-82
2022/02/01 07:54:45;;;;;;;43.33;17.05;;;;;;;19.46;20.67;97540.66;5059276;28;20491;-82
2022/02/01 07:57:11;;;;;;;36.63;13.82;;;;;;;18.89;21.39;97548.78;5063535;28;20033;-82
2022/02/01 07:59:38;;;;;;;35.80;13.60;;;;;;;19.53;20.66;97549.72;5058095;28;20036;-81
2022/02/01 08:02:05;;;;;;;32.38;11.88;;;;;;;17.56;22.52;97559.59;5059857;28;20029;-81
2022/02/01 08:04:34;;;;;;;36.95;13.13;;;;;;;17.67;22.84;97561.13;5060912;28;20036;-81
2022/02/01 08:07:01;;;;;;;30.83;11.70;;;;;;;18.62;21.76;97562.56;5058803;28;20487;-81
2022/02/01 08:09:38;;;;;;;33.72;12.07;;;;;;;17.44;22.53;97560.81;5059721;28;20485;-81
2022/02/01 08:12:20;;;;;;;36.42;12.90;;;;;;;17.27;22.89;97556.91;5054504;28;20037;-81
2022/02/01 08:17:38;;;;;;;24.38;9.38;;;;;;;17.32;22.96;97552.16;5056620;28;20025;-81
2022/02/01 08:20:07;;;;;;;38.38;12.75;;;;;;;17.68;22.69;97551.63;5056913;28;20519;-81
2022/02/01 08:25:13;;;;;;;23.70;9.32;;;;;;;17.53;22.57;97557.63;5067647;28;20472;-81
2022/02/01 08:27:41;;;;;;;29.85;11.18;;;;;;;18.81;21.44;97555.63;5053423;28;20041;-80
2022/02/01 08:30:10;;;;;;;26.90;11.15;;;;;;;18.25;21.71;97557.63;5062913;28;20107;-81
2022/02/01 08:32:37;;;;;;;33.20;12.07;;;;;;;19.23;20.70;97553.19;5066596;28;20400;-81
2022/02/01 08:35:04;;;;;;;30.95;12.45;;;;;;;19.03;20.73;97548.66;5065659;28;20027;-81
2022/02/01 08:37:31;;;;;;;23.02;10.48;;;;;;;18.91;20.96;97551.94;5065325;28;20056;-81
2022/02/01 08:39:57;;;;;;;27.38;10.18;;;;;;;18.84;21.44;97547.25;5059542;28;20032;-81
2022/02/01 08:42:23;;;;;;;21.92;8.35;;;;;;;18.68;21.38;97552.56;5062780;28;20048;-81
2022/02/01 08:44:49;;;;;;;25.75;11.07;;;;;;;20.20;19.93;97546.03;5066069;28;20439;-81
2022/02/01 08:47:16;;;;;;;23.17;9.02;;;;;;;21.26;19.02;97549.88;5058216;28;20033;-81
2022/02/01 08:49:42;;;;;;;31.70;10.90;;;;;;;21.78;18.04;97547.22;5059804;28;20028;-81
2022/02/01 08:52:13;;;;;;;34.28;12.88;;;;;;;21.16;18.68;97548.84;5066184;28;20445;-81
2022/02/01 08:54:40;;;;;;;;;;;;;;;21.01;18.57;97539.13;5066330;28;20404;-81
2022/02/01 08:57:24;;;;;;;24.13;11.32;;;;;;;20.14;19.35;97556.06;5064222;28;19924;-81
2022/02/01 08:59:53;;;;;;;24.92;9.85;;;;;;;19.83;19.99;97551.72;5064505;28;20465;-81
2022/02/01 09:02:27;;;;;;;27.73;11.48;;;;;;;20.57;19.31;97550.66;5092999;28;20115;-81
2022/02/01 09:04:54;;;;;;;22.48;9.30;;;;;;;19.14;20.38;97546.53;5064958;28;20080;-81
2022/02/01 09:07:20;;;;;;;33.35;13.75;;;;;;;19.58;20.22;97543.69;5062258;28;20033;-81
2022/02/01 09:09:47;;;;;;;26.90;11.60;;;;;;;19.22;20.79;97557.22;5062730;28;20052;-81
2022/02/01 09:12:15;;;;;;;32.58;10.98;;;;;;;19.92;19.93;97543.66;5063775;28;20094;-81
2022/02/01 09:14:43;;;;;;;27.08;11.65;;;;;;;19.55;20.15;97543.72;5064391;28;20392;-81
2022/02/01 09:17:09;;;;;;;31.60;12.88;;;;;;;20.50;19.37;97543.19;5059525;28;20024;-81
2022/02/01 09:19:36;;;;;;;30.42;11.38;;;;;;;18.50;20.83;97544.38;5063760;28;20025;-81
2022/02/01 09:22:02;;;;;;;29.48;12.35;;;;;;;17.84;22.03;97559.47;5063683;28;20056;-80
2022/02/01 09:24:30;;;;;;;32.25;11.57;;;;;;;18.63;20.96;97544.66;5063371;28;20047;-81
2022/02/01 09:26:56;;;;;;;27.20;10.57;;;;;;;18.85;20.64;97546.06;5063661;28;20357;-81
2022/02/01 09:29:23;;;;;;;24.02;10.38;;;;;;;19.19;20.26;97548.88;5061774;28;20033;-80
2022/02/01 09:31:50;;;;;;;26.23;9.95;;;;;;;18.08;21.42;97550.22;5054895;28;20086;-80
2022/02/01 09:34:17;;;;;;;26.80;9.93;;;;;;;18.91;20.58;97543.59;5060245;28;20052;-81
2022/02/01 09:36:43;;;;;;;23.05;8.07;;;;;;;17.24;22.41;97568.03;5069764;28;20045;-80
2022/02/01 09:39:09;;;;;;;24.42;9.13;;;;;;;16.77;22.23;97558.19;5064278;28;20032;-81
2022/02/01 09:41:39;;;;;;;25.83;8.77;;;;;;;17.60;21.53;97560.38;5057645;28;20029;-81
2022/02/01 09:44:06;;;;;;;20.23;8.87;;;;;;;18.30;21.22;97573.88;5065873;28;20047;-81
2022/02/01 09:46:34;;;;;;;23.48;9.85;;;;;;;18.52;20.97;97572.56;5059217;28;20029;-81
2022/02/01 09:49:01;;;;;;;16.27;7.68;;;;;;;18.41;21.35;97580.13;5062572;28;20530;-81
2022/02/01 09:51:27;;;;;;;23.75;9.52;;;;;;;17.78;21.58;97575.75;5057737;28;20037;-81
2022/02/01 09:53:53;;;;;;;27.08;9.90;;;;;;;17.62;22.27;97563.56;5056226;28;20032;-81
2022/02/01 09:56:20;;;;;;;20.88;9.05;;;;;;;19.56;20.14;97556.44;5062234;28;20097;-81
2022/02/01 09:58:56;;;;;;;26.08;10.43;;;;;;;18.29;20.83;97557.63;5064629;28;20380;-81
2022/02/01 10:01:27;;;;;;;23.08;9.65;;;;;;;20.20;19.70;97561.97;5060469;28;20035;-81
2022/02/01 10:04:07;;;;;;;26.17;12.40;;;;;;;19.10;20.03;97571.63;5067859;28;20025;-80
2022/02/01 10:06:36;;;;;;;28.17;10.30;;;;;;;19.74;19.70;97557.03;5057595;28;20110;-81
2022/02/01 10:09:11;;;;;;;33.35;10.98;;;;;;;17.98;21.23;97564.16;5057466;28;20060;-81
2022/02/01 10:11:40;;;;;;;28.58;9.88;;;;;;;19.56;19.69;97556.44;5061793;28;20122;-81
2022/02/01 10:14:09;;;;;;;28.33;10.27;;;;;;;18.98;20.04;97554.66;5062333;28;20037;-81
2022/02/01 10:16:43;;;;;;;25.48;9.80;;;;;;;19.09;20.09;97547.03;5068688;28;20033;-81
2022/02/01 10:19:11;;;;;;;24.88;10.30;;;;;;;19.89;19.35;97553.63;5065095;28;20121;-81
2022/02/01 10:21:55;;;;;;;22.73;10.00;;;;;;;21.09;17.85;97557.38;5056974;28;20049;-81
2022/02/01 10:24:33;;;;;;;29.40;10.90;;;;;;;19.02;19.17;97574.91;5063217;28;20048;-81
2022/02/01 10:27:10;;;;;;;24.85;8.98;;;;;;;18.79;20.18;97569.13;5061009;28;20021;-81
2022/02/01 10:29:40;;;;;;;25.40;9.55;;;;;;;20.53;18.43;97567.47;5060729;28;20028;-81
2022/02/01 10:32:22;;;;;;;25.52;9.48;;;;;;;20.51;17.92;97557.94;5063198;28;20029;-81
2022/02/01 10:34:49;;;;;;;32.20;12.23;;;;;;;18.30;20.00;97543.31;5061900;28;20485;-81
2022/02/01 10:37:24;;;;;;;37.10;12.57;;;;;;;18.11;20.16;97549.38;5057812;28;20493;-81
2022/02/01 10:39:59;;;;;;;22.40;9.40;;;;;;;19.40;19.29;97554.25;5060902;28;20465;-81
2022/02/01 10:42:26;;;;;;;25.42;10.88;;;;;;;19.47;18.91;97548.59;5058204;28;20041;-81
2022/02/01 10:44:56;;;;;;;25.27;9.27;;;;;;;18.86;19.54;97555.16;5056460;28;20032;-81
2022/02/01 10:47:35;;;;;;;22.57;9.13;;;;;;;19.46;18.54;97549.81;5061362;28;20120;-81
2022/02/01 10:50:07;;;;;;;24.48;9.93;;;;;;;19.77;18.17;97533.88;5058032;28;20404;-81
2022/02/01 10:52:36;;;;;;;23.80;8.50;;;;;;;20.75;17.18;97531.63;5058010;28;20444;-81
2022/02/01 10:55:05;;;;;;;22.10;9.07;;;;;;;20.42;17.82;97522.19;5054892;28;20036;-81
2022/02/01 10:57:31;;;;;;;25.35;8.95;;;;;;;21.42;17.02;97530.41;5062035;28;20040;-81
2022/02/01 10:59:57;;;;;;;20.55;8.73;;;;;;;21.13;16.77;97513.41;5057602;28;20047;-81
2022/02/01 11:02:28;;;;;;;26.55;8.90;;;;;;;20.80;17.21;97519.19;5058077;28;20423;-81
2022/02/01 11:04:54;;;;;;;20.58;9.02;;;;;;;21.21;16.75;97520.41;5065429;28;20071;-81
2022/02/01 11:07:21;;;;;;;22.52;9.88;;;;;;;22.08;16.20;97512.66;5060501;28;20036;-81
2022/02/01 11:09:47;;;;;;;22.48;9.10;;;;;;;19.29;18.19;97506.25;5062917;28;20488;-81
2022/02/01 11:12:13;;;;;;;22.92;8.02;;;;;;;19.68;18.05;97506.56;5060277;28;20040;-81
2022/02/01 11:14:48;;;;;;;21.40;8.30;;;;;;;19.13;18.68;97506.03;5056638;28;20496;-81
2022/02/01 11:17:17;;;;;;;16.80;7.47;;;;;;;20.16;17.46;97502.69;5059817;28;20036;-81
2022/02/01 11:19:56;;;;;;;20.67;7.47;;;;;;;20.67;16.84;97507.84;5062354;28;20086;-81
2022/02/01 11:22:32;;;;;;;13.18;5.90;;;;;;;20.13;17.25;97503.53;5061683;28;20132;-81
2022/02/01 11:25:21;;;;;;;20.02;7.32;;;;;;;20.48;16.68;97511.38;5060560;28;20017;-81
2022/02/01 11:30:40;;;;;;;17.35;6.13;;;;;;;21.31;16.35;97511.06;5060873;28;20140;-81
2022/02/01 11:33:09;;;;;;;16.25;6.47;;;;;;;19.76;17.35;97504.47;5056710;28;20037;-81
2022/02/01 11:35:36;;;;;;;18.02;6.75;;;;;;;19.14;18.11;97496.47;5067073;28;20031;-81
2022/02/01 11:38:07;;;;;;;15.02;6.68;;;;;;;18.81;18.41;97498.00;5061387;28;20082;-81
2022/02/01 11:40:46;;;;;;;30.50;9.20;;;;;;;18.36;18.59;97501.97;5055761;28;20032;-81
2022/02/01 11:43:13;;;;;;;19.50;7.28;;;;;;;20.00;17.66;97492.16;5054775;28;20024;-81
2022/02/01 11:45:57;;;;;;;18.65;7.72;;;;;;;20.47;17.15;97485.47;5066266;28;20116;-81
2022/02/01 11:48:32;;;;;;;20.35;7.13;;;;;;;21.69;16.52;97496.72;5056198;28;20029;-81
2022/02/01 11:51:12;;;;;;;20.75;8.60;;;;;;;19.92;18.00;97474.78;5056557;28;20017;-81
2022/02/01 11:53:41;;;;;;;22.52;8.68;;;;;;;19.26;18.97;97488.38;5058608;28;20037;-81
2022/02/01 11:56:09;;;;;;;15.27;7.63;;;;;;;19.22;19.29;97482.06;5053388;28;20036;-81
2022/02/01 11:58:45;;;;;;;20.33;7.75;;;;;;;18.61;19.57;97475.56;5051720;28;20028;-81
2022/02/01 12:01:47;;;;;;;20.85;7.47;;;;;;;20.20;18.36;97473.56;5060114;28;20036;-81
2022/02/01 12:04:16;;;;;;;;;;;;;;;18.62;19.39;97470.81;5056805;28;20049;-81
2022/02/01 12:06:58;;;;;;;16.38;7.13;;;;;;;18.44;19.96;97470.94;5057774;28;20292;-81
2022/02/01 12:09:25;;;;;;;15.88;7.30;;;;;;;20.06;18.33;97465.41;5059696;28;20057;-81
2022/02/01 12:11:59;;;;;;;16.35;6.78;;;;;;;20.16;17.98;97469.25;5064629;28;20035;-81
2022/02/01 12:14:27;;;;;;;14.90;5.63;;;;;;;20.24;17.82;97467.94;5062681;28;20036;-81
2022/02/01 12:16:54;;;;;;;18.23;5.80;;;;;;;20.88;17.10;97471.22;5058183;28;20520;-81
2022/02/01 12:19:59;;;;;;;12.43;5.38;;;;;;;20.94;16.98;97463.91;5063029;28;20469;-81
2022/02/01 12:22:48;;;;;;;12.63;5.35;;;;;;;21.21;16.53;97470.16;5074170;28;20041;-81
2022/02/01 12:25:14;;;;;;;16.23;5.40;;;;;;;20.61;17.26;97468.50;5065714;28;20029;-81
2022/02/01 12:27:42;;;;;;;16.58;6.72;;;;;;;19.65;18.12;97459.28;5062483;28;20113;-81
2022/02/01 12:30:09;;;;;;;15.18;5.65;;;;;;;19.61;18.06;97448.19;5056705;28;20476;-82
2022/02/01 12:32:47;;;;;;;13.90;5.53;;;;;;;19.66;18.33;97446.91;5064628;28;20043;-81
2022/02/01 12:35:13;;;;;;;11.98;5.30;;;;;;;20.67;17.48;97433.34;5059009;28;20065;-82
2022/02/01 12:37:39;;;;;;;15.88;5.22;;;;;;;21.71;16.50;97441.97;5071891;28;20048;-82
2022/02/01 12:40:10;;;;;;;14.30;5.15;;;;;;;22.43;16.04;97431.47;5072702;28;20020;-83
2022/02/01 12:42:47;;;;;;;9.10;4.05;;;;;;;22.22;16.00;97429.22;5063700;28;20036;-83
2022/02/01 12:48:00;;;;;;;11.18;4.10;;;;;;;22.41;15.49;97425.53;5065553;28;20090;-81
2022/02/01 12:50:27;;;;;;;13.65;4.93;;;;;;;22.23;16.15;97430.00;5064519;28;20511;-81
2022/02/01 12:52:59;;;;;;;8.00;3.53;;;;;;;22.91;15.84;97421.47;5061405;28;20032;-80
2022/02/01 12:55:26;;;;;;;8.80;3.75;;;;;;;22.91;15.44;97427.84;5067125;28;20500;-81